createdAt,value
2019-03-16T00:00:08.283Z,5.20
2019-03-16T00:02:39.179Z,5.30
2019-03-16T00:05:08.350Z,5.30
2019-03-16T00:07:38.680Z,5.30
2019-03-16T00:10:08.418Z,5.40
2019-03-16T00:12:37.895Z,5.40
2019-03-16T00:15:06.978Z,5.40
2019-03-16T00:17:36.215Z,5.40
2019-03-16T00:20:06.411Z,5.40
2019-03-16T00:22:35.610Z,5.50
2019-03-16T00:25:04.943Z,5.50
2019-03-16T00:27:34.148Z,5.50
2019-03-16T00:30:03.424Z,5.50
2019-03-16T00:32:32.641Z,5.50
2019-03-16T00:35:01.906Z,5.60
2019-03-16T00:37:31.206Z,5.60
2019-03-16T00:40:00.392Z,5.60
2019-03-16T00:42:29.677Z,5.70
2019-03-16T00:44:58.834Z,5.60
2019-03-16T00:47:28.067Z,5.70
2019-03-16T00:49:57.383Z,5.70
2019-03-16T00:52:26.723Z,5.70
2019-03-16T00:54:56.038Z,5.70
2019-03-16T00:57:25.273Z,5.70
2019-03-16T00:59:54.520Z,5.60
2019-03-16T01:02:27.440Z,5.60
2019-03-16T01:04:55.805Z,5.60
2019-03-16T01:07:25.244Z,5.60
2019-03-16T01:09:54.431Z,5.60
2019-03-16T01:12:23.707Z,5.50
2019-03-16T01:14:52.954Z,5.60
2019-03-16T01:17:22.159Z,5.50
2019-03-16T01:19:51.387Z,5.50
2019-03-16T01:22:20.641Z,5.50
2019-03-16T01:24:49.837Z,5.40
2019-03-16T01:27:19.116Z,5.40
2019-03-16T01:29:48.326Z,5.30
2019-03-16T01:32:17.757Z,5.30
2019-03-16T01:34:47.253Z,5.30
2019-03-16T01:37:16.625Z,5.30
2019-03-16T01:39:45.843Z,5.30
2019-03-16T01:42:15.183Z,5.30
2019-03-16T01:44:44.557Z,5.20
2019-03-16T01:47:13.753Z,5.30
2019-03-16T01:49:42.983Z,5.30
2019-03-16T01:52:12.307Z,5.30
2019-03-16T01:54:41.679Z,5.30
2019-03-16T01:57:10.888Z,5.30
2019-03-16T01:59:40.167Z,5.30
2019-03-16T02:05:00.431Z,5.30
2019-03-16T02:07:32.040Z,5.30
2019-03-16T02:10:01.184Z,5.30
2019-03-16T02:12:30.382Z,5.30
2019-03-16T02:14:59.668Z,5.30
2019-03-16T02:17:28.880Z,5.20
2019-03-16T02:19:58.139Z,5.30
2019-03-16T02:22:27.288Z,5.20
2019-03-16T02:24:56.573Z,5.20
2019-03-16T02:27:25.766Z,5.20
2019-03-16T02:29:55.932Z,5.10
2019-03-16T02:32:25.185Z,5.10
2019-03-16T02:34:54.301Z,5.10
2019-03-16T02:37:23.608Z,5.10
2019-03-16T02:39:52.728Z,5.00
2019-03-16T02:42:21.963Z,5.00
2019-03-16T02:44:51.119Z,5.10
2019-03-16T02:47:20.272Z,5.10
2019-03-16T02:49:49.504Z,5.10
2019-03-16T02:52:18.830Z,5.10
2019-03-16T02:54:47.997Z,5.10
2019-03-16T02:57:17.185Z,5.10
2019-03-16T02:59:46.479Z,5.00
2019-03-16T03:02:15.903Z,5.10
2019-03-16T03:04:46.292Z,5.00
2019-03-16T03:07:16.072Z,5.10
2019-03-16T03:09:45.299Z,5.10
2019-03-16T03:12:14.437Z,5.20
2019-03-16T03:14:43.760Z,5.10
2019-03-16T03:17:13.988Z,5.20
2019-03-16T03:19:44.508Z,5.10
2019-03-16T03:22:13.787Z,5.20
2019-03-16T03:24:44.549Z,5.20
2019-03-16T03:27:14.137Z,5.20
2019-03-16T03:29:43.396Z,5.20
2019-03-16T03:32:12.532Z,5.20
2019-03-16T03:34:41.799Z,5.20
2019-03-16T03:37:10.996Z,5.20
2019-03-16T03:39:40.399Z,5.30
2019-03-16T03:42:09.642Z,5.30
2019-03-16T03:44:38.768Z,5.30
2019-03-16T03:47:08.006Z,5.30
2019-03-16T03:49:37.300Z,5.30
2019-03-16T03:52:06.516Z,5.40
2019-03-16T03:54:35.749Z,5.30
2019-03-16T03:57:04.902Z,5.30
2019-03-16T03:59:34.120Z,5.30
2019-03-16T04:02:03.358Z,5.40
2019-03-16T04:04:32.476Z,5.30
2019-03-16T04:07:01.787Z,5.30
2019-03-16T04:09:31.393Z,5.30
2019-03-16T04:12:00.722Z,5.30
2019-03-16T04:14:29.988Z,5.30
2019-03-16T04:16:59.289Z,5.40
2019-03-16T04:19:28.447Z,5.40
2019-03-16T04:21:57.736Z,5.50
2019-03-16T04:24:26.940Z,5.50
2019-03-16T04:26:56.331Z,5.50
2019-03-16T04:29:25.568Z,5.50
2019-03-16T04:31:54.822Z,5.50
2019-03-16T04:34:29.672Z,5.50
2019-03-16T04:36:54.944Z,5.50
2019-03-16T04:39:24.128Z,5.50
2019-03-16T04:41:53.280Z,5.60
2019-03-16T04:44:22.751Z,5.50
2019-03-16T04:46:51.972Z,5.50
2019-03-16T04:49:21.286Z,5.50
2019-03-16T04:51:50.463Z,5.50
2019-03-16T04:54:19.838Z,5.60
2019-03-16T04:56:49.058Z,5.60
2019-03-16T04:59:18.355Z,5.60
2019-03-16T05:01:47.950Z,5.60
2019-03-16T05:04:17.176Z,5.60
2019-03-16T05:06:46.316Z,5.60
2019-03-16T05:09:15.752Z,5.70
2019-03-16T05:11:45.096Z,5.70
2019-03-16T05:14:14.360Z,5.70
2019-03-16T05:16:43.713Z,5.70
2019-03-16T05:19:13.048Z,5.70
2019-03-16T05:21:42.398Z,5.70
2019-03-16T05:24:11.547Z,5.70
2019-03-16T05:26:40.782Z,5.70
2019-03-16T05:29:10.920Z,5.70
2019-03-16T05:31:41.149Z,5.70
2019-03-16T05:37:15.176Z,5.70
2019-03-16T05:39:44.505Z,5.80
2019-03-16T05:42:15.274Z,5.70
2019-03-16T05:44:44.586Z,5.70
2019-03-16T05:50:33.581Z,5.70
2019-03-16T05:53:03.007Z,5.70
2019-03-16T05:55:32.336Z,5.70
2019-03-16T05:58:01.549Z,5.70
2019-03-16T06:00:33.587Z,5.80
2019-03-16T06:03:02.888Z,5.80
2019-03-16T06:05:32.059Z,5.80
2019-03-16T06:08:01.411Z,5.90
2019-03-16T06:10:30.664Z,5.90
2019-03-16T06:13:01.040Z,5.80
2019-03-16T06:15:30.175Z,5.90
2019-03-16T06:17:59.667Z,5.90
2019-03-16T06:20:28.916Z,5.90
2019-03-16T06:22:58.059Z,5.90
2019-03-16T06:25:27.428Z,5.90
2019-03-16T06:27:56.704Z,6.00
2019-03-16T06:30:26.072Z,6.00
2019-03-16T06:32:55.488Z,6.00
2019-03-16T06:35:29.307Z,6.10
2019-03-16T06:37:55.861Z,6.20
2019-03-16T06:40:25.339Z,6.20
2019-03-16T06:42:54.476Z,6.30
2019-03-16T06:45:26.368Z,6.30
2019-03-16T06:47:55.667Z,6.30
2019-03-16T06:50:25.127Z,6.20
2019-03-16T06:52:54.283Z,6.20
2019-03-16T06:55:23.463Z,6.30
2019-03-16T06:57:53.200Z,6.30
2019-03-16T07:00:22.548Z,6.40
2019-03-16T07:02:51.685Z,6.30
2019-03-16T07:05:23.635Z,6.40
2019-03-16T07:07:51.893Z,6.40
2019-03-16T07:10:21.254Z,6.40
2019-03-16T07:12:50.582Z,6.40
2019-03-16T07:15:20.012Z,6.50
2019-03-16T07:17:49.192Z,6.60
2019-03-16T07:20:18.388Z,6.70
2019-03-16T07:22:47.625Z,6.70
2019-03-16T07:25:16.915Z,6.80
2019-03-16T07:27:46.127Z,6.90
2019-03-16T07:30:15.347Z,7.00
2019-03-16T07:32:44.627Z,7.20
2019-03-16T07:35:13.786Z,7.20
2019-03-16T07:37:42.981Z,7.40
2019-03-16T07:40:12.219Z,7.40
2019-03-16T07:42:41.350Z,7.50
2019-03-16T07:45:10.505Z,7.50
2019-03-16T07:47:39.643Z,7.60
2019-03-16T07:50:08.887Z,7.60
2019-03-16T07:52:38.082Z,7.60
2019-03-16T07:55:07.364Z,7.60
2019-03-16T07:57:40.582Z,7.60
2019-03-16T08:00:07.497Z,7.60
2019-03-16T08:02:36.828Z,7.60
2019-03-16T08:05:17.396Z,7.50
2019-03-16T08:07:36.782Z,7.60
2019-03-16T08:10:05.996Z,7.50
2019-03-16T08:12:35.223Z,7.30
2019-03-16T08:15:04.948Z,7.30
2019-03-16T08:17:35.310Z,7.20
2019-03-16T08:20:04.671Z,7.30
2019-03-16T08:22:34.020Z,7.40
2019-03-16T08:25:03.184Z,7.60
2019-03-16T08:27:32.392Z,7.70
2019-03-16T08:30:01.579Z,7.70
2019-03-16T08:32:31.804Z,7.90
2019-03-16T08:35:04.156Z,8.00
2019-03-16T08:37:33.388Z,8.20
2019-03-16T08:40:02.527Z,8.00
2019-03-16T08:42:31.768Z,8.20
2019-03-16T08:45:00.959Z,8.10
2019-03-16T08:47:33.367Z,8.10
2019-03-16T08:50:02.816Z,8.20
2019-03-16T08:52:32.139Z,8.10
2019-03-16T08:55:01.400Z,8.00
2019-03-16T08:57:34.064Z,8.00
2019-03-16T09:00:03.734Z,8.10
2019-03-16T09:02:33.243Z,7.90
2019-03-16T09:05:02.672Z,7.90
2019-03-16T09:07:31.967Z,7.90
2019-03-16T09:10:01.228Z,8.10
2019-03-16T09:12:30.811Z,8.20
2019-03-16T09:15:00.263Z,8.30
2019-03-16T09:17:29.824Z,8.30
2019-03-16T09:19:59.031Z,8.30
2019-03-16T09:22:29.711Z,8.20
2019-03-16T09:24:58.975Z,8.30
2019-03-16T09:27:31.556Z,8.30
2019-03-16T09:29:59.411Z,8.50
2019-03-16T09:32:28.710Z,8.60
2019-03-16T09:34:59.679Z,8.90
2019-03-16T09:37:30.283Z,8.70
2019-03-16T09:39:59.560Z,8.90
2019-03-16T09:42:28.871Z,8.80
2019-03-16T09:44:58.331Z,8.90
2019-03-16T09:47:27.533Z,9.10
2019-03-16T09:49:56.773Z,9.20
2019-03-16T09:52:26.096Z,9.20
2019-03-16T09:54:55.279Z,9.10
2019-03-16T09:57:24.427Z,9.10
2019-03-16T09:59:54.040Z,9.30
2019-03-16T10:02:26.472Z,9.30
2019-03-16T10:04:55.767Z,9.80
2019-03-16T10:07:28.090Z,9.60
2019-03-16T10:09:57.276Z,9.70
2019-03-16T10:12:26.496Z,9.30
2019-03-16T10:14:55.841Z,9.30
2019-03-16T10:17:25.343Z,9.70
2019-03-16T10:19:55.658Z,9.60
2019-03-16T10:22:25.365Z,9.60
2019-03-16T10:24:54.657Z,9.60
2019-03-16T10:27:25.436Z,9.40
2019-03-16T10:29:54.664Z,9.50
2019-03-16T10:32:23.900Z,9.40
2019-03-16T10:34:54.145Z,9.50
2019-03-16T10:37:23.376Z,9.70
2019-03-16T10:39:52.780Z,9.80
2019-03-16T10:42:21.970Z,10.00
2019-03-16T10:44:51.148Z,10.10
2019-03-16T10:47:20.400Z,10.20
2019-03-16T10:49:49.658Z,10.00
2019-03-16T10:52:18.813Z,10.00
2019-03-16T10:54:48.071Z,10.00
2019-03-16T10:57:17.435Z,10.20
2019-03-16T10:59:47.149Z,10.20
2019-03-16T11:02:16.669Z,10.10
2019-03-16T11:04:45.938Z,10.30
2019-03-16T11:07:15.295Z,10.40
2019-03-16T11:09:44.929Z,10.50
2019-03-16T11:12:14.056Z,10.30
2019-03-16T11:14:43.378Z,10.00
2019-03-16T11:17:15.162Z,9.90
2019-03-16T11:19:44.559Z,10.00
2019-03-16T11:22:13.760Z,9.80
2019-03-16T11:24:43.441Z,10.00
2019-03-16T11:27:17.432Z,10.00
2019-03-16T11:29:46.818Z,10.00
2019-03-16T11:32:44.277Z,10.00
2019-03-16T11:35:13.576Z,10.20
2019-03-16T11:38:08.006Z,10.10
2019-03-16T11:41:06.837Z,10.10
2019-03-16T11:43:37.518Z,9.90
2019-03-16T11:46:06.732Z,10.00
2019-03-16T11:48:38.815Z,10.00
2019-03-16T11:51:08.156Z,10.10
2019-03-16T11:53:37.772Z,10.30
2019-03-16T11:56:17.342Z,10.50
2019-03-16T11:58:38.245Z,10.60
2019-03-16T12:01:07.464Z,10.50
2019-03-16T12:03:39.566Z,11.20
2019-03-16T12:06:08.835Z,11.60
2019-03-16T12:08:39.642Z,12.00
2019-03-16T12:11:09.416Z,12.30
2019-03-16T12:13:47.856Z,12.50
2019-03-16T12:16:17.384Z,12.30
2019-03-16T12:18:46.625Z,12.20
2019-03-16T12:21:18.920Z,11.80
2019-03-16T12:23:48.395Z,11.20
2019-03-16T12:26:20.184Z,12.00
2019-03-16T12:28:49.744Z,11.30
2019-03-16T12:31:19.964Z,11.20
2019-03-16T12:33:49.425Z,11.00
2019-03-16T12:36:18.763Z,11.00
2019-03-16T12:38:48.020Z,10.70
2019-03-16T12:41:17.488Z,10.90
2019-03-16T12:43:46.792Z,11.00
2019-03-16T12:46:15.993Z,11.10
2019-03-16T12:48:45.589Z,11.30
2019-03-16T12:51:14.861Z,12.00
2019-03-16T12:53:44.303Z,12.40
2019-03-16T12:56:13.824Z,12.60
2019-03-16T12:58:43.291Z,13.10
2019-03-16T13:01:12.835Z,13.00
2019-03-16T13:03:43.218Z,12.90
2019-03-16T13:06:15.662Z,13.00
2019-03-16T13:08:44.892Z,12.80
2019-03-16T13:11:15.844Z,13.50
2019-03-16T13:13:46.582Z,13.20
2019-03-16T13:16:16.079Z,13.40
2019-03-16T13:18:54.480Z,13.30
2019-03-16T13:21:24.090Z,13.10
2019-03-16T13:23:53.564Z,12.70
2019-03-16T13:26:22.858Z,12.50
2019-03-16T13:28:52.421Z,12.00
2019-03-16T13:31:22.089Z,11.90
2019-03-16T13:33:53.379Z,11.90
2019-03-16T13:36:22.584Z,11.30
2019-03-16T13:38:52.987Z,11.20
2019-03-16T13:41:23.544Z,11.00
2019-03-16T13:43:53.314Z,11.30
2019-03-16T13:46:22.615Z,11.30
2019-03-16T13:48:51.800Z,11.30
2019-03-16T13:51:21.264Z,11.50
2019-03-16T13:53:50.738Z,11.90
2019-03-16T13:56:21.244Z,11.90
2019-03-16T13:58:51.956Z,11.90
2019-03-16T14:01:21.276Z,11.60
2019-03-16T14:03:50.679Z,11.50
2019-03-16T14:06:21.656Z,11.20
2019-03-16T14:08:50.920Z,10.70
2019-03-16T14:11:20.127Z,10.70
2019-03-16T14:13:49.339Z,10.60
2019-03-16T14:16:19.122Z,10.50
2019-03-16T14:18:48.403Z,10.30
2019-03-16T14:21:17.716Z,10.10
2019-03-16T14:23:46.914Z,10.00
2019-03-16T14:26:16.179Z,9.80
2019-03-16T14:28:47.980Z,9.90
2019-03-16T14:31:17.344Z,9.90
2019-03-16T14:33:46.624Z,9.90
2019-03-16T14:36:16.134Z,10.00
2019-03-16T14:38:47.136Z,9.90
2019-03-16T14:41:16.552Z,9.90
2019-03-16T14:43:48.393Z,10.00
2019-03-16T14:46:17.330Z,9.80
2019-03-16T14:48:46.659Z,9.80
2019-03-16T14:51:15.962Z,9.80
2019-03-16T14:53:47.890Z,9.80
2019-03-16T14:56:17.008Z,9.70
2019-03-16T14:58:47.624Z,9.60
2019-03-16T15:01:17.932Z,9.50
2019-03-16T15:03:47.448Z,9.50
2019-03-16T15:06:16.800Z,9.50
2019-03-16T15:08:46.600Z,9.30
2019-03-16T15:11:16.185Z,9.30
2019-03-16T15:13:48.324Z,9.30
2019-03-16T15:16:17.599Z,9.40
2019-03-16T15:18:47.568Z,9.30
2019-03-16T15:21:19.116Z,9.30
2019-03-16T15:23:48.552Z,9.10
2019-03-16T15:26:17.797Z,9.10
2019-03-16T15:28:54.943Z,9.10
2019-03-16T15:31:22.595Z,9.00
2019-03-16T15:33:51.009Z,8.90
2019-03-16T15:36:20.184Z,8.80
2019-03-16T15:38:49.622Z,8.80
2019-03-16T15:41:18.795Z,8.80
2019-03-16T15:43:48.703Z,8.70
2019-03-16T15:46:17.823Z,8.50
2019-03-16T15:48:47.963Z,8.50
2019-03-16T15:51:17.252Z,8.50
2019-03-16T15:53:47.377Z,8.50
2019-03-16T15:56:19.893Z,8.40
2019-03-16T15:58:49.696Z,8.40
2019-03-16T16:01:19.012Z,8.30
2019-03-16T16:03:48.723Z,8.30
2019-03-16T16:06:18.073Z,8.30
2019-03-16T16:08:49.794Z,8.20
2019-03-16T16:11:18.951Z,8.20
2019-03-16T16:13:54.115Z,8.10
2019-03-16T16:16:22.008Z,8.00
2019-03-16T16:18:51.544Z,7.90
2019-03-16T16:21:21.814Z,7.80
2019-03-16T16:23:51.126Z,7.80
2019-03-16T16:26:20.481Z,7.70
2019-03-16T16:28:59.287Z,7.70
2019-03-16T16:31:28.562Z,7.60
2019-03-16T16:33:58.095Z,7.60
2019-03-16T16:36:27.247Z,7.60
2019-03-16T16:39:02.322Z,7.50
2019-03-16T16:41:32.738Z,7.50
2019-03-16T16:44:01.957Z,7.50
2019-03-16T16:46:31.284Z,7.50
2019-03-16T16:49:00.657Z,7.40
2019-03-16T16:51:29.847Z,7.30
2019-03-16T16:53:59.168Z,7.20
2019-03-16T16:56:28.350Z,7.10
2019-03-16T16:58:57.510Z,7.00
2019-03-16T17:01:29.549Z,7.00
2019-03-16T17:03:57.577Z,6.90
2019-03-16T17:06:27.108Z,6.80
2019-03-16T17:08:56.385Z,6.80
2019-03-16T17:11:27.194Z,6.70
2019-03-16T17:13:56.489Z,6.60
2019-03-16T17:16:25.672Z,6.60
2019-03-16T17:19:11.564Z,6.50
2019-03-16T17:21:41.487Z,6.50
2019-03-16T17:24:10.745Z,6.40
2019-03-16T17:26:39.936Z,6.40
2019-03-16T17:29:09.149Z,6.40
2019-03-16T17:31:42.538Z,6.30
2019-03-16T17:34:10.046Z,6.30
2019-03-16T17:36:39.350Z,6.30
2019-03-16T17:39:08.611Z,6.30
2019-03-16T17:41:37.755Z,6.30
2019-03-16T17:44:06.983Z,6.20
2019-03-16T17:46:36.376Z,6.20
2019-03-16T17:49:05.680Z,6.30
2019-03-16T17:51:34.796Z,6.20
2019-03-16T17:54:04.127Z,6.20
2019-03-16T17:56:33.395Z,6.20
2019-03-16T17:59:02.724Z,6.20
2019-03-16T18:01:34.141Z,6.20
2019-03-16T18:04:03.569Z,6.20
2019-03-16T18:06:35.875Z,6.20
2019-03-16T18:09:10.855Z,6.20
2019-03-16T18:11:40.228Z,6.20
2019-03-16T18:14:09.609Z,6.20
2019-03-16T18:16:39.758Z,6.20
2019-03-16T18:19:11.532Z,6.20
2019-03-16T18:21:41.960Z,6.20
2019-03-16T18:24:12.341Z,6.20
2019-03-16T18:26:41.582Z,6.20
2019-03-16T18:29:11.864Z,6.20
2019-03-16T18:31:41.101Z,6.20
2019-03-16T18:34:10.348Z,6.30
2019-03-16T18:36:39.617Z,6.30
2019-03-16T18:39:08.931Z,6.30
2019-03-16T18:41:41.176Z,6.30
2019-03-16T18:44:10.411Z,6.30
2019-03-16T18:46:42.372Z,6.40
2019-03-16T18:49:11.549Z,6.30
2019-03-16T18:51:40.822Z,6.30
2019-03-16T18:54:10.092Z,6.20
2019-03-16T18:56:39.298Z,6.10
2019-03-16T18:59:09.326Z,6.10
2019-03-16T19:01:38.613Z,6.10
2019-03-16T19:04:07.869Z,6.00
2019-03-16T19:06:37.120Z,6.00
2019-03-16T19:09:07.479Z,6.00
2019-03-16T19:11:36.646Z,5.90
2019-03-16T19:14:05.975Z,5.90
2019-03-16T19:16:35.228Z,5.90
2019-03-16T19:19:04.368Z,5.90
2019-03-16T19:21:33.831Z,5.90
2019-03-16T19:24:03.056Z,5.90
2019-03-16T19:26:32.293Z,5.80
2019-03-16T19:29:02.698Z,5.80
2019-03-16T19:31:31.900Z,5.70
2019-03-16T19:34:01.161Z,5.70
2019-03-16T19:36:30.564Z,5.70
2019-03-16T19:39:00.069Z,5.70
2019-03-16T19:41:29.304Z,5.70
2019-03-16T19:43:59.540Z,5.70
2019-03-16T19:46:29.020Z,5.70
2019-03-16T19:48:58.280Z,5.60
2019-03-16T19:51:27.562Z,5.60
2019-03-16T19:53:56.911Z,5.60
2019-03-16T19:56:26.204Z,5.60
2019-03-16T19:59:00.897Z,5.50
2019-03-16T20:01:27.060Z,5.50
2019-03-16T20:03:56.866Z,5.50
2019-03-16T20:06:26.289Z,5.40
2019-03-16T20:08:55.792Z,5.40
2019-03-16T20:11:25.160Z,5.40
2019-03-16T20:13:56.640Z,5.40
2019-03-16T20:16:25.896Z,5.40
2019-03-16T20:18:57.883Z,5.40
2019-03-16T20:21:27.156Z,5.30
2019-03-16T20:23:59.398Z,5.20
2019-03-16T20:26:28.667Z,5.20
2019-03-16T20:28:57.980Z,5.20
2019-03-16T20:31:27.197Z,5.10
2019-03-16T20:33:57.108Z,5.10
2019-03-16T20:36:26.408Z,5.00
2019-03-16T20:38:55.965Z,5.00
2019-03-16T20:41:35.521Z,4.80
2019-03-16T20:43:56.412Z,4.80
2019-03-16T20:46:25.700Z,4.80
2019-03-16T20:48:55.032Z,4.70
2019-03-16T20:51:25.932Z,4.60
2019-03-16T20:53:55.272Z,4.60
2019-03-16T20:56:26.076Z,4.60
2019-03-16T20:58:55.343Z,4.60
2019-03-16T21:01:24.812Z,4.50
2019-03-16T21:03:54.053Z,4.50
2019-03-16T21:06:23.244Z,4.50
2019-03-16T21:09:02.550Z,4.40
2019-03-16T21:11:23.397Z,4.40
2019-03-16T21:13:52.708Z,4.40
2019-03-16T21:16:21.964Z,4.40
2019-03-16T21:18:51.272Z,4.40
2019-03-16T21:21:20.556Z,4.30
2019-03-16T21:23:49.927Z,4.20
2019-03-16T21:26:19.140Z,4.20
2019-03-16T21:28:48.333Z,4.20
2019-03-16T21:31:17.508Z,4.20
2019-03-16T21:33:46.749Z,4.10
2019-03-16T21:36:16.014Z,4.10
2019-03-16T21:38:45.244Z,4.10
2019-03-16T21:41:14.496Z,4.20
2019-03-16T21:43:43.730Z,4.10
2019-03-16T21:46:12.864Z,4.10
2019-03-16T21:48:42.120Z,4.10
2019-03-16T21:51:11.359Z,4.10
2019-03-16T21:53:40.768Z,4.10
2019-03-16T21:56:10.980Z,4.10
2019-03-16T21:58:40.228Z,4.10
2019-03-16T22:01:09.639Z,4.00
2019-03-16T22:03:42.135Z,4.00
2019-03-16T22:06:09.675Z,4.00
2019-03-16T22:08:38.829Z,4.00
2019-03-16T22:11:08.026Z,4.00
2019-03-16T22:13:37.304Z,4.00
2019-03-16T22:16:06.687Z,4.00
2019-03-16T22:18:35.916Z,4.00
2019-03-16T22:21:05.251Z,4.00
2019-03-16T22:23:34.500Z,3.90
2019-03-16T22:26:03.728Z,4.00
2019-03-16T22:28:32.838Z,4.00
2019-03-16T22:31:02.364Z,4.00
2019-03-16T22:33:31.625Z,3.90
2019-03-16T22:36:01.032Z,3.90
2019-03-16T22:38:30.491Z,4.00
2019-03-16T22:40:59.915Z,4.00
2019-03-16T22:43:29.408Z,4.00
2019-03-16T22:45:58.544Z,4.00
2019-03-16T22:48:27.852Z,4.00
2019-03-16T22:50:57.104Z,3.90
2019-03-16T22:53:26.331Z,3.90
2019-03-16T22:55:56.687Z,3.90
2019-03-16T22:58:26.199Z,3.90
2019-03-16T23:00:55.565Z,3.90
2019-03-16T23:03:25.088Z,3.90
2019-03-16T23:05:54.355Z,3.90
2019-03-16T23:08:23.680Z,3.80
2019-03-16T23:10:52.867Z,3.80
2019-03-16T23:13:22.064Z,3.80
2019-03-16T23:15:51.240Z,3.80
2019-03-16T23:18:20.673Z,3.80
2019-03-16T23:20:50.031Z,3.80
2019-03-16T23:23:19.327Z,3.70
2019-03-16T23:25:48.600Z,3.80
2019-03-16T23:28:17.868Z,3.80
2019-03-16T23:30:48.349Z,3.70
2019-03-16T23:33:17.729Z,3.80
2019-03-16T23:35:47.024Z,3.80
2019-03-16T23:38:16.246Z,3.70
2019-03-16T23:40:45.504Z,3.80
2019-03-16T23:43:14.639Z,3.80
2019-03-16T23:45:43.904Z,3.80
2019-03-16T23:48:13.248Z,3.80
2019-03-16T23:50:42.510Z,3.80
2019-03-16T23:53:11.676Z,3.80
2019-03-16T23:55:40.807Z,3.80
2019-03-16T23:58:10.232Z,3.80
